sensor_id;sensor_type;location;lat;lon;timestamp;pressure;altitude;pressure_sealevel;temperature;humidity
41202;BME280;26936;50.524;8.684;2024-02-26T00:01:00;97680.63;;;5.05;91.27
41202;BME280;26936;50.524;8.684;2024-02-26T00:03:25;97685.75;;;5.06;90.73
41202;BME280;26936;50.524;8.684;2024-02-26T00:05:50;97675.88;;;5.14;90.75
41202;BME280;26936;50.524;8.684;2024-02-26T00:08:15;97681.66;;;5.20;90.40
41202;BME280;26936;50.524;8.684;2024-02-26T00:10:40;97678.41;;;5.21;90.17
41202;BME280;26936;50.524;8.684;2024-02-26T00:13:06;97683.53;;;5.23;89.48
41202;BME280;26936;50.524;8.684;2024-02-26T00:15:31;97680.28;;;5.24;89.43
41202;BME280;26936;50.524;8.684;2024-02-26T00:17:56;97679.81;;;5.26;89.50
41202;BME280;26936;50.524;8.684;2024-02-26T00:20:22;97677.94;;;5.23;90.39
41202;BME280;26936;50.524;8.684;2024-02-26T00:22:47;97671.44;;;5.26;90.79
41202;BME280;26936;50.524;8.684;2024-02-26T00:25:12;97669.72;;;5.19;90.34
41202;BME280;26936;50.524;8.684;2024-02-26T00:27:37;97663.66;;;5.21;91.29
41202;BME280;26936;50.524;8.684;2024-02-26T00:30:04;97674.22;;;5.26;90.07
41202;BME280;26936;50.524;8.684;2024-02-26T00:32:30;97665.53;;;5.24;89.43
41202;BME280;26936;50.524;8.684;2024-02-26T00:34:55;97664.78;;;5.23;89.89
41202;BME280;26936;50.524;8.684;2024-02-26T00:37:20;97655.63;;;5.23;90.40
41202;BME280;26936;50.524;8.684;2024-02-26T00:39:46;97656.41;;;5.23;90.22
41202;BME280;26936;50.524;8.684;2024-02-26T00:42:11;97652.81;;;5.14;90.42
41202;BME280;26936;50.524;8.684;2024-02-26T00:44:37;97654.34;;;5.15;90.93
41202;BME280;26936;50.524;8.684;2024-02-26T00:47:02;97658.72;;;5.25;89.87
41202;BME280;26936;50.524;8.684;2024-02-26T00:49:27;97643.06;;;5.18;91.00
41202;BME280;26936;50.524;8.684;2024-02-26T00:51:53;97650.38;;;5.25;90.44
41202;BME280;26936;50.524;8.684;2024-02-26T00:54:18;97648.97;;;5.29;89.96
41202;BME280;26936;50.524;8.684;2024-02-26T00:56:43;97645.09;;;5.27;91.10
41202;BME280;26936;50.524;8.684;2024-02-26T00:59:08;97647.13;;;5.26;92.64
41202;BME280;26936;50.524;8.684;2024-02-26T01:01:34;97643.94;;;5.46;90.54
41202;BME280;26936;50.524;8.684;2024-02-26T01:03:59;97640.03;;;5.43;89.97
41202;BME280;26936;50.524;8.684;2024-02-26T01:06:25;97636.00;;;5.44;90.00
41202;BME280;26936;50.524;8.684;2024-02-26T01:08:50;97644.34;;;5.35;89.93
41202;BME280;26936;50.524;8.684;2024-02-26T01:11:15;97650.06;;;5.32;90.69
41202;BME280;26936;50.524;8.684;2024-02-26T01:13:41;97647.78;;;5.39;90.13
41202;BME280;26936;50.524;8.684;2024-02-26T01:16:06;97650.50;;;5.61;89.07
41202;BME280;26936;50.524;8.684;2024-02-26T01:18:31;97655.16;;;5.64;88.54
41202;BME280;26936;50.524;8.684;2024-02-26T01:20:56;97653.28;;;5.61;87.68
41202;BME280;26936;50.524;8.684;2024-02-26T01:23:22;97660.88;;;5.61;88.10
41202;BME280;26936;50.524;8.684;2024-02-26T01:25:47;97654.19;;;5.58;88.16
41202;BME280;26936;50.524;8.684;2024-02-26T01:28:13;97659.09;;;5.45;88.83
41202;BME280;26936;50.524;8.684;2024-02-26T01:30:39;97651.13;;;5.25;89.81
41202;BME280;26936;50.524;8.684;2024-02-26T01:33:04;97654.16;;;5.40;89.48
41202;BME280;26936;50.524;8.684;2024-02-26T01:35:29;97656.44;;;5.32;89.88
41202;BME280;26936;50.524;8.684;2024-02-26T01:37:55;97651.22;;;5.52;89.19
41202;BME280;26936;50.524;8.684;2024-02-26T01:40:20;97655.44;;;5.57;89.14
41202;BME280;26936;50.524;8.684;2024-02-26T01:42:46;97662.25;;;5.56;89.22
41202;BME280;26936;50.524;8.684;2024-02-26T01:45:14;97658.41;;;5.72;88.55
41202;BME280;26936;50.524;8.684;2024-02-26T01:47:52;97659.16;;;5.54;88.69
41202;BME280;26936;50.524;8.684;2024-02-26T01:50:18;97657.91;;;5.55;89.40
41202;BME280;26936;50.524;8.684;2024-02-26T01:52:45;97653.91;;;5.65;88.54
41202;BME280;26936;50.524;8.684;2024-02-26T01:55:12;97653.56;;;5.54;88.41
41202;BME280;26936;50.524;8.684;2024-02-26T01:57:40;97649.38;;;5.49;88.95
41202;BME280;26936;50.524;8.684;2024-02-26T02:00:06;97661.94;;;5.54;88.67
41202;BME280;26936;50.524;8.684;2024-02-26T02:02:32;97649.78;;;5.39;89.31
41202;BME280;26936;50.524;8.684;2024-02-26T02:04:58;97636.47;;;5.43;89.19
41202;BME280;26936;50.524;8.684;2024-02-26T02:07:24;97620.66;;;5.40;89.76
41202;BME280;26936;50.524;8.684;2024-02-26T02:09:50;97614.44;;;5.45;89.51
41202;BME280;26936;50.524;8.684;2024-02-26T02:12:15;97606.22;;;5.41;88.82
41202;BME280;26936;50.524;8.684;2024-02-26T02:14:40;97620.66;;;5.49;88.62
41202;BME280;26936;50.524;8.684;2024-02-26T02:17:06;97620.53;;;5.52;88.89
41202;BME280;26936;50.524;8.684;2024-02-26T02:19:32;97626.44;;;5.54;88.76
41202;BME280;26936;50.524;8.684;2024-02-26T02:21:57;97612.63;;;5.51;87.72
41202;BME280;26936;50.524;8.684;2024-02-26T02:24:22;97606.38;;;5.47;88.40
41202;BME280;26936;50.524;8.684;2024-02-26T02:26:48;97604.69;;;5.49;88.22
41202;BME280;26936;50.524;8.684;2024-02-26T02:29:14;97608.09;;;5.53;87.97
41202;BME280;26936;50.524;8.684;2024-02-26T02:31:40;97604.25;;;5.51;88.28
41202;BME280;26936;50.524;8.684;2024-02-26T02:34:05;97594.28;;;5.50;88.63
41202;BME280;26936;50.524;8.684;2024-02-26T02:36:30;97600.66;;;5.41;89.13
41202;BME280;26936;50.524;8.684;2024-02-26T02:38:56;97611.66;;;5.45;88.88
41202;BME280;26936;50.524;8.684;2024-02-26T02:41:21;97594.75;;;5.39;89.26
41202;BME280;26936;50.524;8.684;2024-02-26T02:43:46;97597.34;;;5.34;89.65
41202;BME280;26936;50.524;8.684;2024-02-26T02:46:12;97612.91;;;5.44;89.23
41202;BME280;26936;50.524;8.684;2024-02-26T02:48:37;97614.28;;;5.48;88.73
41202;BME280;26936;50.524;8.684;2024-02-26T02:51:03;97625.19;;;5.55;88.90
41202;BME280;26936;50.524;8.684;2024-02-26T02:53:29;97606.72;;;5.49;89.16
41202;BME280;26936;50.524;8.684;2024-02-26T02:55:54;97600.66;;;5.50;88.80
41202;BME280;26936;50.524;8.684;2024-02-26T02:58:19;97596.44;;;5.37;89.78
41202;BME280;26936;50.524;8.684;2024-02-26T03:00:45;97606.53;;;5.43;89.63
41202;BME280;26936;50.524;8.684;2024-02-26T03:03:10;97592.09;;;5.36;90.31
41202;BME280;26936;50.524;8.684;2024-02-26T03:05:35;97600.31;;;5.39;90.10
41202;BME280;26936;50.524;8.684;2024-02-26T03:08:01;97609.50;;;5.40;89.69
41202;BME280;26936;50.524;8.684;2024-02-26T03:10:26;97602.66;;;5.41;89.69
41202;BME280;26936;50.524;8.684;2024-02-26T03:12:51;97597.25;;;5.46;90.57
41202;BME280;26936;50.524;8.684;2024-02-26T03:15:16;97604.84;;;5.46;89.65
41202;BME280;26936;50.524;8.684;2024-02-26T03:17:42;97600.81;;;5.47;90.35
41202;BME280;26936;50.524;8.684;2024-02-26T03:20:08;97610.75;;;5.48;90.00
41202;BME280;26936;50.524;8.684;2024-02-26T03:22:34;97594.28;;;5.50;89.84
41202;BME280;26936;50.524;8.684;2024-02-26T03:25:00;97584.50;;;5.45;90.36
41202;BME280;26936;50.524;8.684;2024-02-26T03:27:25;97600.47;;;5.45;90.65
41202;BME280;26936;50.524;8.684;2024-02-26T03:29:50;97596.75;;;5.30;92.13
41202;BME280;26936;50.524;8.684;2024-02-26T03:32:16;97594.41;;;5.37;90.61
41202;BME280;26936;50.524;8.684;2024-02-26T03:34:41;97608.38;;;5.37;90.81
41202;BME280;26936;50.524;8.684;2024-02-26T03:37:07;97622.81;;;5.45;90.93
41202;BME280;26936;50.524;8.684;2024-02-26T03:39:34;97627.38;;;5.61;90.40
41202;BME280;26936;50.524;8.684;2024-02-26T03:41:59;97612.75;;;5.56;90.14
41202;BME280;26936;50.524;8.684;2024-02-26T03:44:25;97619.31;;;5.63;90.64
41202;BME280;26936;50.524;8.684;2024-02-26T03:46:50;97613.56;;;5.57;91.05
41202;BME280;26936;50.524;8.684;2024-02-26T03:49:15;97630.16;;;5.61;90.68
41202;BME280;26936;50.524;8.684;2024-02-26T03:51:41;97637.75;;;5.60;90.70
41202;BME280;26936;50.524;8.684;2024-02-26T03:54:06;97627.03;;;5.58;90.34
41202;BME280;26936;50.524;8.684;2024-02-26T03:56:32;97618.53;;;5.62;90.34
41202;BME280;26936;50.524;8.684;2024-02-26T03:58:57;97616.16;;;5.51;90.70
41202;BME280;26936;50.524;8.684;2024-02-26T04:01:24;97627.03;;;5.58;89.62
41202;BME280;26936;50.524;8.684;2024-02-26T04:03:50;97620.38;;;5.56;89.49
41202;BME280;26936;50.524;8.684;2024-02-26T04:06:15;97622.25;;;5.59;89.46
41202;BME280;26936;50.524;8.684;2024-02-26T04:08:43;97617.75;;;5.62;89.23
41202;BME280;26936;50.524;8.684;2024-02-26T04:11:08;97616.06;;;5.64;89.20
41202;BME280;26936;50.524;8.684;2024-02-26T04:13:33;97616.38;;;5.66;88.90
41202;BME280;26936;50.524;8.684;2024-02-26T04:15:59;97618.53;;;5.71;88.79
41202;BME280;26936;50.524;8.684;2024-02-26T04:18:26;97628.16;;;5.70;88.77
41202;BME280;26936;50.524;8.684;2024-02-26T04:20:52;97631.56;;;5.65;88.88
41202;BME280;26936;50.524;8.684;2024-02-26T04:23:17;97632.50;;;5.62;89.08
41202;BME280;26936;50.524;8.684;2024-02-26T04:25:43;97633.28;;;5.63;89.01
41202;BME280;26936;50.524;8.684;2024-02-26T04:28:08;97630.63;;;5.68;89.32
41202;BME280;26936;50.524;8.684;2024-02-26T04:30:33;97635.00;;;5.69;89.14
41202;BME280;26936;50.524;8.684;2024-02-26T04:32:58;97629.38;;;5.51;91.24
41202;BME280;26936;50.524;8.684;2024-02-26T04:35:24;97634.97;;;5.60;91.20
41202;BME280;26936;50.524;8.684;2024-02-26T04:37:49;97634.47;;;5.52;93.01
41202;BME280;26936;50.524;8.684;2024-02-26T04:40:14;97632.16;;;5.60;91.77
41202;BME280;26936;50.524;8.684;2024-02-26T04:42:40;97641.19;;;5.64;90.88
41202;BME280;26936;50.524;8.684;2024-02-26T04:45:05;97636.34;;;5.55;91.31
41202;BME280;26936;50.524;8.684;2024-02-26T04:47:32;97641.78;;;5.59;90.99
41202;BME280;26936;50.524;8.684;2024-02-26T04:49:57;97637.44;;;5.58;90.52
41202;BME280;26936;50.524;8.684;2024-02-26T04:52:22;97645.50;;;5.56;91.43
41202;BME280;26936;50.524;8.684;2024-02-26T04:54:48;97654.22;;;5.67;90.45
41202;BME280;26936;50.524;8.684;2024-02-26T04:57:13;97647.72;;;5.70;90.63
41202;BME280;26936;50.524;8.684;2024-02-26T04:59:38;97651.38;;;5.58;91.04
41202;BME280;26936;50.524;8.684;2024-02-26T05:02:05;97656.69;;;5.65;90.69
41202;BME280;26936;50.524;8.684;2024-02-26T05:04:31;97649.09;;;5.66;90.81
41202;BME280;26936;50.524;8.684;2024-02-26T05:06:56;97647.53;;;5.55;90.97
41202;BME280;26936;50.524;8.684;2024-02-26T05:09:22;97647.38;;;5.68;90.20
41202;BME280;26936;50.524;8.684;2024-02-26T05:11:47;97657.81;;;5.68;89.95
41202;BME280;26936;50.524;8.684;2024-02-26T05:14:12;97657.00;;;5.67;90.10
41202;BME280;26936;50.524;8.684;2024-02-26T05:16:37;97649.09;;;5.66;90.49
41202;BME280;26936;50.524;8.684;2024-02-26T05:19:03;97647.84;;;5.67;90.15
41202;BME280;26936;50.524;8.684;2024-02-26T05:21:28;97658.56;;;5.68;90.03
41202;BME280;26936;50.524;8.684;2024-02-26T05:23:53;97651.44;;;5.67;90.25
41202;BME280;26936;50.524;8.684;2024-02-26T05:26:22;97651.59;;;5.73;89.77
41202;BME280;26936;50.524;8.684;2024-02-26T05:28:48;97654.38;;;5.64;91.02
41202;BME280;26936;50.524;8.684;2024-02-26T05:31:14;97656.06;;;5.61;89.96
41202;BME280;26936;50.524;8.684;2024-02-26T05:33:39;97660.88;;;5.70;90.31
41202;BME280;26936;50.524;8.684;2024-02-26T05:36:04;97658.69;;;5.65;90.80
41202;BME280;26936;50.524;8.684;2024-02-26T05:38:30;97662.28;;;5.65;90.16
41202;BME280;26936;50.524;8.684;2024-02-26T05:40:57;97660.59;;;5.68;90.46
41202;BME280;26936;50.524;8.684;2024-02-26T05:43:22;97657.63;;;5.62;90.46
41202;BME280;26936;50.524;8.684;2024-02-26T05:45:47;97669.25;;;5.70;90.26
41202;BME280;26936;50.524;8.684;2024-02-26T05:48:12;97677.19;;;5.71;90.47
41202;BME280;26936;50.524;8.684;2024-02-26T05:50:38;97667.88;;;5.65;90.44
41202;BME280;26936;50.524;8.684;2024-02-26T05:53:03;97674.09;;;5.78;90.16
41202;BME280;26936;50.524;8.684;2024-02-26T05:55:29;97674.56;;;5.77;90.17
41202;BME280;26936;50.524;8.684;2024-02-26T05:57:54;97678.91;;;5.78;89.98
41202;BME280;26936;50.524;8.684;2024-02-26T06:00:20;97674.25;;;5.75;90.23
41202;BME280;26936;50.524;8.684;2024-02-26T06:02:45;97671.44;;;5.75;90.16
41202;BME280;26936;50.524;8.684;2024-02-26T06:05:10;97673.94;;;5.73;90.17
41202;BME280;26936;50.524;8.684;2024-02-26T06:07:36;97667.72;;;5.78;89.95
41202;BME280;26936;50.524;8.684;2024-02-26T06:10:02;97685.75;;;5.77;89.79
41202;BME280;26936;50.524;8.684;2024-02-26T06:12:29;97698.19;;;5.85;89.83
41202;BME280;26936;50.524;8.684;2024-02-26T06:14:55;97686.53;;;5.77;89.81
41202;BME280;26936;50.524;8.684;2024-02-26T06:17:21;97695.88;;;5.83;89.65
41202;BME280;26936;50.524;8.684;2024-02-26T06:19:46;97695.28;;;5.88;89.47
41202;BME280;26936;50.524;8.684;2024-02-26T06:22:11;97696.59;;;5.75;90.16
41202;BME280;26936;50.524;8.684;2024-02-26T06:24:37;97701.78;;;5.85;89.44
41202;BME280;26936;50.524;8.684;2024-02-26T06:27:02;97698.06;;;5.88;89.22
41202;BME280;26936;50.524;8.684;2024-02-26T06:29:28;97706.91;;;5.96;89.08
41202;BME280;26936;50.524;8.684;2024-02-26T06:31:53;97716.81;;;5.88;89.75
41202;BME280;26936;50.524;8.684;2024-02-26T06:34:18;97710.94;;;5.86;89.59
41202;BME280;26936;50.524;8.684;2024-02-26T06:36:44;97716.81;;;5.88;89.54
41202;BME280;26936;50.524;8.684;2024-02-26T06:39:09;97712.59;;;5.74;90.39
41202;BME280;26936;50.524;8.684;2024-02-26T06:41:35;97721.59;;;5.78;90.39
41202;BME280;26936;50.524;8.684;2024-02-26T06:44:01;97724.75;;;5.89;90.35
41202;BME280;26936;50.524;8.684;2024-02-26T06:46:29;97730.19;;;5.84;90.10
41202;BME280;26936;50.524;8.684;2024-02-26T06:48:55;97736.66;;;5.81;90.72
41202;BME280;26936;50.524;8.684;2024-02-26T06:51:21;97745.03;;;5.81;91.01
41202;BME280;26936;50.524;8.684;2024-02-26T06:53:46;97742.56;;;5.83;90.59
41202;BME280;26936;50.524;8.684;2024-02-26T06:56:11;97749.72;;;5.84;90.60
41202;BME280;26936;50.524;8.684;2024-02-26T06:58:37;97748.34;;;5.88;90.03
41202;BME280;26936;50.524;8.684;2024-02-26T07:01:02;97755.34;;;5.93;90.27
41202;BME280;26936;50.524;8.684;2024-02-26T07:03:27;97763.91;;;5.98;90.00
41202;BME280;26936;50.524;8.684;2024-02-26T07:05:54;97768.88;;;6.03;90.54
41202;BME280;26936;50.524;8.684;2024-02-26T07:08:19;97771.97;;;5.96;90.84
41202;BME280;26936;50.524;8.684;2024-02-26T07:10:44;97786.25;;;5.98;91.34
41202;BME280;26936;50.524;8.684;2024-02-26T07:13:10;97777.59;;;6.05;92.01
41202;BME280;26936;50.524;8.684;2024-02-26T07:15:35;97783.19;;;6.05;92.25
41202;BME280;26936;50.524;8.684;2024-02-26T07:18:00;97785.22;;;6.14;91.78
41202;BME280;26936;50.524;8.684;2024-02-26T07:20:29;97789.09;;;6.16;91.96
41202;BME280;26936;50.524;8.684;2024-02-26T07:22:55;97796.53;;;6.10;92.77
41202;BME280;26936;50.524;8.684;2024-02-26T07:25:20;97793.13;;;6.06;93.74
41202;BME280;26936;50.524;8.684;2024-02-26T07:27:46;97799.31;;;6.10;94.28
41202;BME280;26936;50.524;8.684;2024-02-26T07:30:11;97794.84;;;6.13;95.18
41202;BME280;26936;50.524;8.684;2024-02-26T07:32:37;97782.88;;;6.12;94.26
41202;BME280;26936;50.524;8.684;2024-02-26T07:35:02;97785.81;;;6.09;97.17
41202;BME280;26936;50.524;8.684;2024-02-26T07:37:28;97779.94;;;6.07;96.95
41202;BME280;26936;50.524;8.684;2024-02-26T07:39:53;97781.47;;;5.99;96.43
41202;BME280;26936;50.524;8.684;2024-02-26T07:42:19;97776.16;;;6.01;97.97
41202;BME280;26936;50.524;8.684;2024-02-26T07:44:44;97783.00;;;6.09;97.63
41202;BME280;26936;50.524;8.684;2024-02-26T07:47:10;97779.00;;;6.10;97.50
41202;BME280;26936;50.524;8.684;2024-02-26T07:49:35;97781.28;;;6.02;99.62
41202;BME280;26936;50.524;8.684;2024-02-26T07:52:00;97777.44;;;6.09;99.68
41202;BME280;26936;50.524;8.684;2024-02-26T07:54:25;97776.63;;;5.99;100.00
41202;BME280;26936;50.524;8.684;2024-02-26T07:56:51;97790.66;;;6.08;100.00
41202;BME280;26936;50.524;8.684;2024-02-26T07:59:16;97784.13;;;6.11;100.00
41202;BME280;26936;50.524;8.684;2024-02-26T08:01:41;97785.38;;;6.19;100.00
41202;BME280;26936;50.524;8.684;2024-02-26T08:04:07;97799.97;;;6.23;100.00
41202;BME280;26936;50.524;8.684;2024-02-26T08:06:32;97795.78;;;6.19;100.00
41202;BME280;26936;50.524;8.684;2024-02-26T08:08:57;97810.53;;;6.19;100.00
41202;BME280;26936;50.524;8.684;2024-02-26T08:11:22;97807.28;;;6.21;100.00
41202;BME280;26936;50.524;8.684;2024-02-26T08:13:48;97810.09;;;6.21;100.00
41202;BME280;26936;50.524;8.684;2024-02-26T08:16:13;97815.34;;;6.19;100.00
41202;BME280;26936;50.524;8.684;2024-02-26T08:18:38;97813.53;;;6.25;100.00
41202;BME280;26936;50.524;8.684;2024-02-26T08:21:04;97818.47;;;6.21;100.00
41202;BME280;26936;50.524;8.684;2024-02-26T08:23:29;97822.19;;;6.18;100.00
41202;BME280;26936;50.524;8.684;2024-02-26T08:25:56;97824.53;;;6.28;100.00
41202;BME280;26936;50.524;8.684;2024-02-26T08:28:21;97819.25;;;6.21;100.00
41202;BME280;26936;50.524;8.684;2024-02-26T08:30:46;97824.78;;;6.12;100.00
41202;BME280;26936;50.524;8.684;2024-02-26T08:33:11;97826.84;;;6.21;100.00
41202;BME280;26936;50.524;8.684;2024-02-26T08:35:38;97832.91;;;6.28;100.00
41202;BME280;26936;50.524;8.684;2024-02-26T08:38:04;97828.31;;;6.34;100.00
41202;BME280;26936;50.524;8.684;2024-02-26T08:40:29;97832.03;;;6.31;100.00
41202;BME280;26936;50.524;8.684;2024-02-26T08:42:54;97836.03;;;6.30;100.00
41202;BME280;26936;50.524;8.684;2024-02-26T08:45:21;97841.31;;;6.28;100.00
41202;BME280;26936;50.524;8.684;2024-02-26T08:47:46;97840.09;;;6.29;100.00
41202;BME280;26936;50.524;8.684;2024-02-26T08:50:11;97841.81;;;6.36;100.00
41202;BME280;26936;50.524;8.684;2024-02-26T08:52:38;97843.97;;;6.32;100.00
41202;BME280;26936;50.524;8.684;2024-02-26T08:55:03;97841.97;;;6.41;100.00
41202;BME280;26936;50.524;8.684;2024-02-26T08:57:29;97842.91;;;6.38;100.00
41202;BME280;26936;50.524;8.684;2024-02-26T08:59:56;97842.75;;;6.33;100.00
41202;BME280;26936;50.524;8.684;2024-02-26T09:02:22;97850.53;;;6.38;100.00
41202;BME280;26936;50.524;8.684;2024-02-26T09:04:47;97849.59;;;6.41;100.00
41202;BME280;26936;50.524;8.684;2024-02-26T09:07:12;97849.28;;;6.39;100.00
41202;BME280;26936;50.524;8.684;2024-02-26T09:09:38;97848.78;;;6.31;100.00
41202;BME280;26936;50.524;8.684;2024-02-26T09:12:03;97852.41;;;6.41;100.00
41202;BME280;26936;50.524;8.684;2024-02-26T09:14:29;97864.53;;;6.47;100.00
41202;BME280;26936;50.524;8.684;2024-02-26T09:16:54;97869.44;;;6.34;100.00
41202;BME280;26936;50.524;8.684;2024-02-26T09:19:19;97856.28;;;6.43;100.00
41202;BME280;26936;50.524;8.684;2024-02-26T09:21:45;97855.16;;;6.32;100.00
41202;BME280;26936;50.524;8.684;2024-02-26T09:24:11;97862.44;;;6.29;100.00
41202;BME280;26936;50.524;8.684;2024-02-26T09:26:37;97849.41;;;6.35;100.00
41202;BME280;26936;50.524;8.684;2024-02-26T09:29:02;97858.63;;;6.54;100.00
41202;BME280;26936;50.524;8.684;2024-02-26T09:31:34;97858.03;;;6.59;100.00
41202;BME280;26936;50.524;8.684;2024-02-26T09:33:59;97865.81;;;6.64;100.00
41202;BME280;26936;50.524;8.684;2024-02-26T09:36:24;97861.31;;;6.66;100.00
41202;BME280;26936;50.524;8.684;2024-02-26T09:38:50;97863.97;;;6.70;100.00
41202;BME280;26936;50.524;8.684;2024-02-26T09:41:15;97872.06;;;6.86;100.00
41202;BME280;26936;50.524;8.684;2024-02-26T09:43:43;97870.84;;;6.96;100.00
41202;BME280;26936;50.524;8.684;2024-02-26T09:46:10;97873.16;;;6.98;100.00
41202;BME280;26936;50.524;8.684;2024-02-26T09:48:35;97871.28;;;7.04;100.00
41202;BME280;26936;50.524;8.684;2024-02-26T09:51:02;97864.94;;;7.12;100.00
41202;BME280;26936;50.524;8.684;2024-02-26T09:53:29;97876.44;;;7.14;100.00
41202;BME280;26936;50.524;8.684;2024-02-26T09:55:57;97876.91;;;7.22;100.00
41202;BME280;26936;50.524;8.684;2024-02-26T09:58:22;97864.47;;;7.23;100.00
41202;BME280;26936;50.524;8.684;2024-02-26T10:00:51;97878.63;;;7.28;100.00
41202;BME280;26936;50.524;8.684;2024-02-26T10:03:21;97871.00;;;7.29;100.00
41202;BME280;26936;50.524;8.684;2024-02-26T10:05:48;97863.38;;;7.29;100.00
41202;BME280;26936;50.524;8.684;2024-02-26T10:08:14;97864.31;;;7.35;100.00
41202;BME280;26936;50.524;8.684;2024-02-26T10:10:43;97864.63;;;7.37;100.00
41202;BME280;26936;50.524;8.684;2024-02-26T10:13:09;97854.50;;;7.40;100.00
41202;BME280;26936;50.524;8.684;2024-02-26T10:15:37;97859.16;;;7.43;100.00
41202;BME280;26936;50.524;8.684;2024-02-26T10:18:06;97864.28;;;7.53;100.00
41202;BME280;26936;50.524;8.684;2024-02-26T10:20:32;97863.66;;;7.49;100.00
41202;BME280;26936;50.524;8.684;2024-02-26T10:22:58;97873.47;;;7.45;100.00
41202;BME280;26936;50.524;8.684;2024-02-26T10:25:23;97875.81;;;7.55;100.00
41202;BME280;26936;50.524;8.684;2024-02-26T10:27:49;97884.22;;;7.55;100.00
41202;BME280;26936;50.524;8.684;2024-02-26T10:30:22;97889.97;;;7.52;100.00
41202;BME280;26936;50.524;8.684;2024-02-26T10:32:54;97895.09;;;7.53;100.00
41202;BME280;26936;50.524;8.684;2024-02-26T10:35:19;97888.13;;;7.49;100.00
41202;BME280;26936;50.524;8.684;2024-02-26T10:37:49;97893.34;;;7.74;100.00
41202;BME280;26936;50.524;8.684;2024-02-26T10:40:15;97887.47;;;7.63;100.00
41202;BME280;26936;50.524;8.684;2024-02-26T10:42:43;97889.34;;;7.57;100.00
41202;BME280;26936;50.524;8.684;2024-02-26T10:45:12;97895.56;;;7.70;100.00
41202;BME280;26936;50.524;8.684;2024-02-26T10:47:37;97895.22;;;7.77;100.00
41202;BME280;26936;50.524;8.684;2024-02-26T10:50:05;97907.84;;;7.81;100.00
41202;BME280;26936;50.524;8.684;2024-02-26T10:52:35;97918.09;;;7.75;100.00
41202;BME280;26936;50.524;8.684;2024-02-26T10:55:02;97913.91;;;7.71;100.00
41202;BME280;26936;50.524;8.684;2024-02-26T10:57:40;97924.81;;;7.78;100.00
41202;BME280;26936;50.524;8.684;2024-02-26T11:00:07;97926.53;;;7.57;100.00
41202;BME280;26936;50.524;8.684;2024-02-26T11:02:36;97922.94;;;7.48;100.00
41202;BME280;26936;50.524;8.684;2024-02-26T11:05:06;97915.31;;;7.57;100.00
41202;BME280;26936;50.524;8.684;2024-02-26T11:07:32;97916.41;;;7.69;100.00
41202;BME280;26936;50.524;8.684;2024-02-26T11:10:02;97913.59;;;7.78;100.00
41202;BME280;26936;50.524;8.684;2024-02-26T11:12:32;97910.78;;;7.78;100.00
41202;BME280;26936;50.524;8.684;2024-02-26T11:14:57;97909.38;;;7.82;100.00
41202;BME280;26936;50.524;8.684;2024-02-26T11:17:26;97909.06;;;7.80;100.00
41202;BME280;26936;50.524;8.684;2024-02-26T11:19:58;97910.13;;;8.01;100.00
41202;BME280;26936;50.524;8.684;2024-02-26T11:22:24;97910.88;;;8.01;100.00
41202;BME280;26936;50.524;8.684;2024-02-26T11:24:52;97912.91;;;8.10;100.00
41202;BME280;26936;50.524;8.684;2024-02-26T11:27:22;97909.16;;;8.13;100.00
41202;BME280;26936;50.524;8.684;2024-02-26T11:29:50;97914.59;;;8.25;100.00
41202;BME280;26936;50.524;8.684;2024-02-26T11:32:18;97910.97;;;8.34;100.00
41202;BME280;26936;50.524;8.684;2024-02-26T11:34:46;97916.75;;;8.31;100.00
41202;BME280;26936;50.524;8.684;2024-02-26T11:37:13;97917.38;;;8.35;100.00
41202;BME280;26936;50.524;8.684;2024-02-26T11:39:40;97910.97;;;8.34;100.00
41202;BME280;26936;50.524;8.684;2024-02-26T11:42:09;97918.50;;;8.28;100.00
41202;BME280;26936;50.524;8.684;2024-02-26T11:44:35;97909.75;;;8.26;100.00
41202;BME280;26936;50.524;8.684;2024-02-26T11:47:12;97915.00;;;8.42;100.00
41202;BME280;26936;50.524;8.684;2024-02-26T11:49:38;97915.38;;;8.68;100.00
41202;BME280;26936;50.524;8.684;2024-02-26T11:52:10;97926.53;;;8.77;100.00
41202;BME280;26936;50.524;8.684;2024-02-26T11:54:46;97941.28;;;8.54;100.00
41202;BME280;26936;50.524;8.684;2024-02-26T11:57:37;97940.53;;;8.53;100.00
41202;BME280;26936;50.524;8.684;2024-02-26T12:05:53;97924.44;;;8.63;100.00
41202;BME280;26936;50.524;8.684;2024-02-26T12:08:20;97940.06;;;8.55;100.00
41202;BME280;26936;50.524;8.684;2024-02-26T12:10:46;97929.56;;;8.64;100.00
41202;BME280;26936;50.524;8.684;2024-02-26T12:13:15;97927.91;;;8.81;100.00
41202;BME280;26936;50.524;8.684;2024-02-26T12:15:45;97941.25;;;8.95;100.00
41202;BME280;26936;50.524;8.684;2024-02-26T12:18:18;97934.25;;;8.91;100.00
41202;BME280;26936;50.524;8.684;2024-02-26T12:20:43;97938.38;;;8.81;100.00
41202;BME280;26936;50.524;8.684;2024-02-26T12:23:16;97941.44;;;8.92;100.00
41202;BME280;26936;50.524;8.684;2024-02-26T12:25:43;97934.69;;;8.98;100.00
41202;BME280;26936;50.524;8.684;2024-02-26T12:28:09;97935.28;;;9.02;100.00
41202;BME280;26936;50.524;8.684;2024-02-26T12:30:34;97936.38;;;9.05;100.00
41202;BME280;26936;50.524;8.684;2024-02-26T12:33:00;97941.63;;;9.12;100.00
41202;BME280;26936;50.524;8.684;2024-02-26T12:35:28;97937.91;;;9.06;100.00
41202;BME280;26936;50.524;8.684;2024-02-26T12:37:56;97942.38;;;9.12;100.00
41202;BME280;26936;50.524;8.684;2024-02-26T12:40:22;97945.50;;;9.14;100.00
41202;BME280;26936;50.524;8.684;2024-02-26T12:42:48;97946.97;;;9.01;100.00
41202;BME280;26936;50.524;8.684;2024-02-26T12:45:14;97948.56;;;9.02;100.00
41202;BME280;26936;50.524;8.684;2024-02-26T12:47:42;97950.81;;;9.12;100.00
41202;BME280;26936;50.524;8.684;2024-02-26T12:50:09;97944.88;;;9.10;100.00
41202;BME280;26936;50.524;8.684;2024-02-26T12:52:35;97955.78;;;9.17;100.00
41202;BME280;26936;50.524;8.684;2024-02-26T12:55:01;97961.88;;;9.16;100.00
41202;BME280;26936;50.524;8.684;2024-02-26T12:57:30;97964.56;;;9.34;100.00
41202;BME280;26936;50.524;8.684;2024-02-26T12:59:56;97965.59;;;9.45;99.70
41202;BME280;26936;50.524;8.684;2024-02-26T13:02:22;97966.19;;;9.26;99.62
41202;BME280;26936;50.524;8.684;2024-02-26T13:04:47;97970.09;;;9.43;99.97
41202;BME280;26936;50.524;8.684;2024-02-26T13:07:13;97968.88;;;9.44;99.64